This is the latest recevied weather packets stored in our database for station/object KJ7BRE-1. If no packets are shown the sender has not sent any weather packets the latest 10 day(s).
| Time | Temp. | Humidity | Pressure | Rain* | Wind** | Luminosity | Snow |
|---|---|---|---|---|---|---|---|
| 1777759021 | 20.56° C | 55% | 1007.1 hPa | 0 mm | - | - | - |
| 1777758720 | 20° C | 55% | 1007.1 hPa | 0 mm | - | - | - |
| 1777758418 | 19.44° C | 58% | 1007.1 hPa | 0 mm | - | - | - |
| 1777758117 | 20° C | 58% | 1007.1 hPa | 0 mm | - | - | - |
| 1777757816 | 19.44° C | 60% | 1007.5 hPa | 0 mm | - | - | - |
| 1777757515 | 18.89° C | 60% | 1007.5 hPa | 0 mm | - | - | - |
| 1777757214 | 20° C | 56% | 1007.5 hPa | 0 mm | - | - | - |
| 1777756912 | 20° C | 55% | 1007.5 hPa | 0 mm | - | - | - |
| 1777756611 | 19.44° C | 58% | 1007.8 hPa | 0 mm | - | - | - |
| 1777756310 | 18.89° C | 58% | 1007.8 hPa | 0 mm | - | - | - |
| 1777756009 | 19.44° C | 59% | 1007.5 hPa | 0 mm | - | - | - |
| 1777755707 | 18.89° C | 59% | 1007.8 hPa | 0 mm | - | - | - |
| 1777755406 | 18.89° C | 60% | 1007.8 hPa | 0 mm | - | - | - |
| 1777755105 | 18.33° C | 60% | 1008.1 hPa | 0 mm | - | - | - |
| 1777754804 | 17.78° C | 63% | 1008.5 hPa | 0 mm | - | - | - |
| 1777754503 | 18.33° C | 60% | 1008.5 hPa | 0 mm | - | - | - |
| 1777754202 | 18.33° C | 60% | 1008.5 hPa | 0 mm | - | - | - |
| 1777753900 | 17.78° C | 61% | 1008.5 hPa | 0 mm | - | - | - |
| 1777753599 | 17.78° C | 62% | 1008.5 hPa | 0 mm | - | - | - |
| 1777753298 | 18.33° C | 60% | 1008.5 hPa | 0 mm | - | - | - |
| 1777752997 | 18.33° C | 61% | 1008.5 hPa | 0 mm | - | - | - |
| 1777752695 | 17.78° C | 63% | 1008.8 hPa | 0 mm | - | - | - |
| 1777752394 | 16.67° C | 63% | 1008.8 hPa | 0 mm | - | - | - |
| 1777752093 | 16.67° C | 64% | 1008.8 hPa | 0 mm | - | - | - |
| 1777751792 | 17.22° C | 64% | 1008.8 hPa | 0 mm | - | - | - |
* Rain latest hour (hover to see other rain measurements)
** Current wind speed in m/s (hover to see current wind gust speed)